East Fort Myers, Florida
Current Conditions -  °F | °C
As of 1:53 PM on Sunday 23 Nov 2014 (Local Time) from KFMY Reporting Station
Broken Clouds Broken Clouds  
Wind Chill: 85°   Ceiling: 6500
Heat Index: 91°   Visibility: 10mi
Dew Point: 72°   Wind: 14mph
Humidity: 65%   Direction: 210°SSW
Pressure: 29.89"   Gusts: NA
Location:  26.6355°N, 81.8675°W
Report Text: KFMY 231853Z 21012KT 10SM FEW033 SCT050 BKN065 29/22 A2989 RMK AO2 SLP125 T02940222
Loading
Personal Weather Stations






























Interactive Weather Map New forecast layout! Learn more

10-Day Weather Forecast

Advertisements
Track Severe Weather on mobile